Lake Worth, FL (33460)

2:13 AM EDT on July 27, 2016 (GMT -0400)
Lake Clarke Shores - Caribbean Rd. East | | Change Station

Elev 16 ft 26.63 °N, 80.07 °W | Updated 7 seconds ago

Partly Cloudy
Partly Cloudy
83.3 °F
Feels Like 93 °F
N
8.1
Wind Variable Wind from East
Gusts 8.1 mph

Today
High -- | Low -- °F
--% Chance of Precip.
Yesterday
High -- | Low -- °F
Precip. -- in
Pressure 30.08 in
Visibility 10.0 miles
Clouds Few 2100 ft
Heat Index 93 °F
Dew Point 78 °F
Humidity 84%
Rainfall 0.00 in
Snow Depth Not available.
6:42 AM 8:10 PM
Waning Gibbous, 46% visible
METAR KPBI 270553Z 14003KT 10SM FEW021 29/24 A3008 RMK AO2 SLP184 T02890239 10300 20289 58004
Pressure 30.08 in
Visibility 10.0 miles
Clouds Few 2100 ft
Heat Index 93 °F
Dew Point 78 °F
Humidity 84%
Rainfall 0.00 in
Snow Depth Not available.
6:42 AM 8:10 PM
Waning Gibbous, 46% visible
METAR KPBI 270553Z 14003KT 10SM FEW021 29/24 A3008 RMK AO2 SLP184 T02890239 10300 20289 58004

10-Day Weather Forecast

Almanac

Astronomy

Jul. 27, 2016 Rise Set
Actual Time
Civil Twilight
Nautical Twilight
Astronomical Twilight
Moon
Length of Visible Light
Length of Day
Tomorrow will be .
, % of the Moon is Illuminated

Today's Extremes

State Highs State Lows

Community

WunderPhotos

Upload Photos

1,927,818 photos uploaded!

WunderBlog® & News

Nearby

Air Quality

  Air Quality AQ Index Pollutant
Not available.

Snow Depth

Station Depth Elevation

Earthquake Activity

City Distance Mag. Time & Date
Minimum magnitude displayed is 2.5.

Coastal Water Temperatures

Place Temperature

Stations

Nearby Weather Stations

Station Location Temp. Windchill Dew Point Humidity Wind Precip. Elev Updated Type
                   

Watches & Warnings

There are currently no watches in effect.